createdAt,value
2022-10-19T00:01:40.574Z,12.30
2022-10-19T00:04:08.834Z,12.30
2022-10-19T00:06:36.431Z,12.30
2022-10-19T00:09:03.144Z,12.30
2022-10-19T00:11:30.142Z,12.30
2022-10-19T00:13:56.962Z,12.30
2022-10-19T00:16:23.892Z,12.30
2022-10-19T00:18:50.630Z,12.30
2022-10-19T00:21:18.484Z,12.30
2022-10-19T00:23:45.534Z,12.30
2022-10-19T00:26:12.676Z,12.20
2022-10-19T00:28:39.436Z,12.20
2022-10-19T00:31:08.181Z,12.20
2022-10-19T00:33:35.014Z,12.20
2022-10-19T00:36:01.809Z,12.20
2022-10-19T00:38:28.515Z,12.20
2022-10-19T00:40:55.360Z,12.20
2022-10-19T00:43:23.872Z,12.20
2022-10-19T00:45:50.751Z,12.20
2022-10-19T00:48:28.147Z,12.20
2022-10-19T00:50:55.347Z,12.20
2022-10-19T00:53:22.060Z,12.20
2022-10-19T00:55:48.947Z,12.20
2022-10-19T00:58:15.842Z,12.20
2022-10-19T01:00:42.586Z,12.20
2022-10-19T01:03:09.819Z,12.20
2022-10-19T01:05:36.565Z,12.20
2022-10-19T01:08:03.454Z,12.20
2022-10-19T01:10:42.136Z,12.20
2022-10-19T01:13:44.010Z,12.20
2022-10-19T01:16:22.395Z,12.20
2022-10-19T01:19:21.924Z,12.20
2022-10-19T01:21:50.508Z,12.20
2022-10-19T01:24:40.793Z,12.20
2022-10-19T01:27:20.719Z,12.30
2022-10-19T01:30:06.936Z,12.20
2022-10-19T01:32:49.554Z,12.20
2022-10-19T01:35:35.772Z,12.20
2022-10-19T01:38:11.855Z,12.20
2022-10-19T01:41:08.198Z,12.20
2022-10-19T01:43:38.530Z,12.20
2022-10-19T01:46:18.824Z,12.20
2022-10-19T01:48:51.045Z,12.20
2022-10-19T01:51:19.937Z,12.20
2022-10-19T01:53:49.563Z,12.20
2022-10-19T01:56:17.432Z,12.20
2022-10-19T01:58:44.514Z,12.20
2022-10-19T02:03:43.069Z,12.20
2022-10-19T02:06:10.195Z,12.20
2022-10-19T02:08:55.059Z,12.20
2022-10-19T02:11:22.279Z,12.30
2022-10-19T02:13:54.943Z,12.30
2022-10-19T02:16:30.220Z,12.30
2022-10-19T02:18:56.997Z,12.20
2022-10-19T02:21:23.765Z,12.20
2022-10-19T02:23:53.372Z,12.20
2022-10-19T02:26:21.314Z,12.30
2022-10-19T02:28:48.184Z,12.30
2022-10-19T02:31:14.847Z,12.30
2022-10-19T02:33:41.631Z,12.30
2022-10-19T02:36:08.421Z,12.30
2022-10-19T02:38:35.364Z,12.30
2022-10-19T02:41:13.993Z,12.30
2022-10-19T02:43:41.753Z,12.30
2022-10-19T02:46:19.730Z,12.30
2022-10-19T02:48:46.431Z,12.30
2022-10-19T02:51:30.331Z,12.30
2022-10-19T02:53:58.985Z,12.30
2022-10-19T02:56:27.978Z,12.30
2022-10-19T02:58:54.792Z,12.30
2022-10-19T03:01:21.549Z,12.30
2022-10-19T03:03:48.489Z,12.30
2022-10-19T03:06:15.244Z,12.30
2022-10-19T03:08:41.961Z,12.30
2022-10-19T03:11:08.649Z,12.30
2022-10-19T03:13:35.580Z,12.30
2022-10-19T03:16:11.453Z,12.40
2022-10-19T03:18:38.603Z,12.30
2022-10-19T03:21:07.397Z,12.30
2022-10-19T03:23:34.487Z,12.40
2022-10-19T03:26:01.344Z,12.40
2022-10-19T03:28:28.325Z,12.40
2022-10-19T03:30:55.169Z,12.40
2022-10-19T03:33:21.976Z,12.40
2022-10-19T03:35:48.718Z,12.40
2022-10-19T03:38:15.467Z,12.40
2022-10-19T03:40:42.412Z,12.40
2022-10-19T03:43:09.194Z,12.40
2022-10-19T03:45:35.896Z,12.40
2022-10-19T03:48:02.594Z,12.40
2022-10-19T03:50:29.268Z,12.40
2022-10-19T03:52:55.999Z,12.40
2022-10-19T03:55:22.683Z,12.40
2022-10-19T03:57:49.416Z,12.40
2022-10-19T04:00:16.255Z,12.40
2022-10-19T04:02:43.027Z,12.40
2022-10-19T04:05:09.756Z,12.40
2022-10-19T04:07:36.662Z,12.40
2022-10-19T04:10:03.605Z,12.40
2022-10-19T04:12:30.284Z,12.40
2022-10-19T04:14:57.783Z,12.40
2022-10-19T04:17:25.391Z,12.40
2022-10-19T04:19:52.081Z,12.40
2022-10-19T04:22:18.802Z,12.40
2022-10-19T04:24:45.469Z,12.40
2022-10-19T04:27:12.213Z,12.40
2022-10-19T04:29:38.936Z,12.40
2022-10-19T04:32:05.955Z,12.40
2022-10-19T04:34:35.251Z,12.40
2022-10-19T04:37:04.484Z,12.40
2022-10-19T04:39:31.168Z,12.40
2022-10-19T04:41:57.928Z,12.40
2022-10-19T04:46:56.216Z,12.40
2022-10-19T04:49:22.943Z,12.40
2022-10-19T04:51:49.659Z,12.40
2022-10-19T04:54:16.335Z,12.40
2022-10-19T04:56:43.002Z,12.40
2022-10-19T04:59:09.850Z,12.40
2022-10-19T05:01:36.806Z,12.40
2022-10-19T05:04:03.692Z,12.40
2022-10-19T05:06:31.282Z,12.40
2022-10-19T05:08:58.150Z,12.40
2022-10-19T05:11:25.067Z,12.40
2022-10-19T05:13:51.830Z,12.40
2022-10-19T05:16:20.526Z,12.40
2022-10-19T05:18:48.948Z,12.50
2022-10-19T05:21:15.939Z,12.40
2022-10-19T05:23:42.728Z,12.40
2022-10-19T05:26:13.436Z,12.40
2022-10-19T05:28:40.298Z,12.40
2022-10-19T05:31:12.347Z,12.40
2022-10-19T05:33:39.236Z,12.40
2022-10-19T05:36:19.103Z,12.40
2022-10-19T05:38:49.573Z,12.40
2022-10-19T05:41:16.522Z,12.40
2022-10-19T05:43:43.397Z,12.40
2022-10-19T05:46:12.139Z,12.40
2022-10-19T05:48:39.151Z,12.40
2022-10-19T05:51:06.610Z,12.30
2022-10-19T05:53:33.689Z,12.30
2022-10-19T05:56:00.465Z,12.30
2022-10-19T05:58:27.306Z,12.30
2022-10-19T06:00:54.838Z,12.40
2022-10-19T06:03:22.252Z,12.40
2022-10-19T06:05:49.934Z,12.30
2022-10-19T06:08:20.066Z,12.30
2022-10-19T06:10:47.022Z,12.30
2022-10-19T06:13:14.002Z,12.30
2022-10-19T06:15:40.738Z,12.40
2022-10-19T06:18:08.207Z,12.40
2022-10-19T06:20:36.264Z,12.40
2022-10-19T06:23:03.109Z,12.40
2022-10-19T06:25:30.678Z,12.40
2022-10-19T06:27:57.874Z,12.50
2022-10-19T06:30:24.627Z,12.50
2022-10-19T06:32:51.407Z,12.50
2022-10-19T06:35:18.444Z,12.50
2022-10-19T06:37:45.202Z,12.50
2022-10-19T06:40:12.235Z,12.60
2022-10-19T06:42:41.733Z,12.60
2022-10-19T06:45:09.093Z,12.60
2022-10-19T06:47:39.241Z,12.60
2022-10-19T06:50:06.772Z,12.50
2022-10-19T06:52:34.578Z,12.60
2022-10-19T06:55:01.770Z,12.60
2022-10-19T06:57:28.845Z,12.60
2022-10-19T06:59:55.926Z,12.70
2022-10-19T07:02:22.755Z,12.70
2022-10-19T07:04:49.424Z,12.70
2022-10-19T07:07:16.223Z,12.70
2022-10-19T07:09:43.077Z,12.70
2022-10-19T07:12:10.886Z,12.80
2022-10-19T07:14:38.741Z,12.80
2022-10-19T07:17:15.274Z,12.80
2022-10-19T07:19:42.034Z,12.80
2022-10-19T07:22:08.851Z,12.80
2022-10-19T07:24:35.791Z,12.90
2022-10-19T07:27:02.622Z,12.90
2022-10-19T07:29:29.311Z,12.90
2022-10-19T07:31:56.160Z,13.00
2022-10-19T07:34:28.951Z,13.00
2022-10-19T07:36:55.929Z,13.00
2022-10-19T07:39:22.644Z,13.10
2022-10-19T07:41:49.344Z,13.10
2022-10-19T07:44:16.282Z,13.20
2022-10-19T07:46:43.156Z,13.20
2022-10-19T07:49:13.593Z,13.20
2022-10-19T07:51:42.657Z,13.30
2022-10-19T07:54:09.368Z,13.30
2022-10-19T07:56:36.229Z,13.30
2022-10-19T07:59:04.929Z,13.40
2022-10-19T08:01:33.389Z,13.40
2022-10-19T08:06:47.515Z,13.50
2022-10-19T08:09:28.050Z,13.60
2022-10-19T08:12:01.337Z,13.60
2022-10-19T08:14:28.343Z,13.70
2022-10-19T08:16:55.149Z,13.70
2022-10-19T08:19:22.707Z,13.80
2022-10-19T08:21:49.522Z,13.80
2022-10-19T08:24:17.529Z,13.80
2022-10-19T08:26:44.413Z,13.90
2022-10-19T08:29:13.758Z,14.00
2022-10-19T08:31:40.771Z,14.00
2022-10-19T08:34:07.854Z,14.10
2022-10-19T08:36:35.731Z,14.20
2022-10-19T08:39:03.900Z,14.20
2022-10-19T08:41:35.977Z,14.20
2022-10-19T08:44:27.566Z,14.40
2022-10-19T08:47:32.309Z,14.40
2022-10-19T08:49:58.960Z,14.50
2022-10-19T08:52:34.670Z,14.60
2022-10-19T08:55:09.148Z,14.70
2022-10-19T08:57:57.704Z,14.70
2022-10-19T09:00:30.274Z,14.70
2022-10-19T09:03:22.990Z,14.80
2022-10-19T09:06:14.858Z,14.80
2022-10-19T09:08:41.617Z,14.80
2022-10-19T09:11:09.730Z,14.70
2022-10-19T09:14:05.991Z,14.70
2022-10-19T09:16:34.899Z,14.70
2022-10-19T09:19:02.300Z,14.70
2022-10-19T09:21:47.465Z,14.70
2022-10-19T09:24:28.758Z,14.70
2022-10-19T09:27:01.765Z,14.70
2022-10-19T09:29:39.223Z,14.70
2022-10-19T09:32:14.542Z,14.70
2022-10-19T09:34:51.964Z,14.70
2022-10-19T09:37:25.022Z,14.70
2022-10-19T09:39:55.151Z,14.70
2022-10-19T09:42:30.520Z,14.80
2022-10-19T09:44:58.356Z,14.90
2022-10-19T09:47:34.834Z,15.00
2022-10-19T09:50:42.362Z,15.10
2022-10-19T09:53:19.707Z,15.10
2022-10-19T09:58:21.352Z,15.20
2022-10-19T10:00:54.921Z,15.20
2022-10-19T10:03:32.231Z,15.30
2022-10-19T10:06:02.372Z,15.30
2022-10-19T10:08:34.668Z,15.30
2022-10-19T10:11:23.425Z,15.40
2022-10-19T10:13:51.882Z,15.50
2022-10-19T10:16:20.236Z,15.50
2022-10-19T10:19:08.924Z,15.50
2022-10-19T10:21:47.462Z,15.50
2022-10-19T10:24:14.148Z,15.50
2022-10-19T10:26:45.156Z,15.50
2022-10-19T10:29:20.624Z,15.50
2022-10-19T10:32:06.913Z,15.60
2022-10-19T10:34:46.068Z,15.60
2022-10-19T10:37:36.107Z,15.70
2022-10-19T10:40:04.748Z,15.70
2022-10-19T10:42:41.014Z,15.70
2022-10-19T10:45:19.177Z,15.70
2022-10-19T10:47:48.335Z,15.70
2022-10-19T10:50:23.158Z,15.80
2022-10-19T10:53:00.832Z,15.80
2022-10-19T10:55:27.724Z,15.70
2022-10-19T10:58:10.896Z,15.80
2022-10-19T11:00:40.566Z,15.80
2022-10-19T11:03:12.725Z,15.80
2022-10-19T11:05:42.042Z,15.80
2022-10-19T11:08:18.788Z,15.90
2022-10-19T11:11:00.785Z,15.90
2022-10-19T11:13:46.064Z,15.90
2022-10-19T11:16:17.200Z,16.00
2022-10-19T11:18:55.413Z,16.00
2022-10-19T11:21:30.407Z,16.10
2022-10-19T11:24:24.562Z,16.10
2022-10-19T11:27:06.710Z,16.10
2022-10-19T11:30:12.271Z,16.00
2022-10-19T11:33:04.284Z,16.00
2022-10-19T11:35:43.171Z,16.10
2022-10-19T11:38:31.491Z,16.20
2022-10-19T11:41:17.438Z,16.20
2022-10-19T11:44:13.401Z,16.20
2022-10-19T11:47:22.002Z,16.30
2022-10-19T11:50:06.865Z,16.20
2022-10-19T11:52:40.922Z,16.20
2022-10-19T11:55:24.642Z,16.20
2022-10-19T11:58:11.614Z,16.20
2022-10-19T12:00:44.543Z,16.20
2022-10-19T12:03:18.494Z,16.30
2022-10-19T12:05:51.431Z,16.40
2022-10-19T12:08:56.982Z,16.40
2022-10-19T12:11:50.405Z,16.40
2022-10-19T12:14:19.614Z,16.40
2022-10-19T12:16:50.070Z,16.30
2022-10-19T12:19:19.620Z,16.30
2022-10-19T12:21:46.469Z,16.30
2022-10-19T12:24:21.500Z,16.30
2022-10-19T12:26:48.249Z,16.30
2022-10-19T12:29:23.757Z,16.40
2022-10-19T12:31:50.465Z,16.40
2022-10-19T12:34:23.240Z,16.50
2022-10-19T12:36:57.085Z,16.50
2022-10-19T12:39:32.027Z,16.60
2022-10-19T12:42:04.908Z,16.70
2022-10-19T12:45:00.436Z,16.70
2022-10-19T12:47:27.290Z,16.80
2022-10-19T12:49:57.871Z,16.90
2022-10-19T12:52:44.508Z,16.90
2022-10-19T12:55:12.323Z,16.90
2022-10-19T12:57:39.698Z,16.80
2022-10-19T13:00:24.094Z,16.80
2022-10-19T13:03:16.415Z,16.80
2022-10-19T13:05:43.152Z,16.90
2022-10-19T13:08:14.565Z,16.80
2022-10-19T13:10:41.538Z,16.80
2022-10-19T13:13:38.105Z,16.80
2022-10-19T13:16:41.662Z,16.80
2022-10-19T13:19:14.631Z,16.80
2022-10-19T13:22:26.945Z,16.80
2022-10-19T13:25:26.824Z,16.80
2022-10-19T13:28:28.455Z,16.70
2022-10-19T13:31:00.478Z,16.70
2022-10-19T13:33:32.800Z,16.70
2022-10-19T13:35:59.613Z,16.80
2022-10-19T13:38:29.612Z,16.80
2022-10-19T13:40:56.481Z,16.90
2022-10-19T13:43:26.781Z,16.80
2022-10-19T13:46:05.555Z,16.80
2022-10-19T13:49:01.453Z,16.80
2022-10-19T13:51:43.070Z,16.80
2022-10-19T13:54:41.890Z,16.80
2022-10-19T13:57:32.113Z,16.80
2022-10-19T14:00:15.863Z,16.80
2022-10-19T14:03:26.416Z,16.80
2022-10-19T14:06:05.017Z,16.90
2022-10-19T14:09:09.944Z,16.90
2022-10-19T14:11:44.340Z,16.90
2022-10-19T14:14:11.061Z,16.90
2022-10-19T14:16:49.506Z,16.90
2022-10-19T14:19:33.586Z,16.80
2022-10-19T14:22:01.454Z,16.80
2022-10-19T14:24:29.085Z,16.80
2022-10-19T14:26:56.388Z,16.80
2022-10-19T14:29:23.152Z,16.80
2022-10-19T14:31:49.866Z,16.80
2022-10-19T14:34:16.566Z,16.90
2022-10-19T14:36:47.581Z,16.90
2022-10-19T14:39:32.976Z,16.90
2022-10-19T14:42:06.100Z,17.00
2022-10-19T14:44:35.016Z,17.00
2022-10-19T14:47:02.039Z,17.10
2022-10-19T14:49:28.856Z,17.20
2022-10-19T14:51:58.609Z,17.10
2022-10-19T14:54:37.631Z,16.90
2022-10-19T14:57:19.244Z,16.70
2022-10-19T14:59:50.166Z,16.90
2022-10-19T15:02:37.508Z,17.00
2022-10-19T15:05:05.620Z,17.00
2022-10-19T15:07:39.726Z,17.00
2022-10-19T15:10:18.651Z,17.10
2022-10-19T15:12:45.375Z,17.30
2022-10-19T15:15:32.901Z,17.40
2022-10-19T15:17:59.600Z,17.30
2022-10-19T15:20:27.723Z,17.20
2022-10-19T15:22:54.745Z,17.20
2022-10-19T15:25:33.801Z,17.20
2022-10-19T15:28:40.611Z,17.10
2022-10-19T15:31:18.879Z,16.90
2022-10-19T15:33:57.203Z,16.70
2022-10-19T15:36:24.377Z,16.60
2022-10-19T15:39:11.397Z,16.60
2022-10-19T15:41:46.561Z,16.60
2022-10-19T15:44:31.245Z,16.40
2022-10-19T15:47:16.366Z,16.30
2022-10-19T15:49:43.310Z,16.30
2022-10-19T15:52:20.332Z,16.20
2022-10-19T15:54:48.211Z,16.10
2022-10-19T15:57:37.349Z,16.00
2022-10-19T16:00:15.306Z,15.80
2022-10-19T16:02:42.064Z,15.80
2022-10-19T16:05:08.841Z,15.70
2022-10-19T16:07:37.852Z,15.70
2022-10-19T16:10:05.316Z,15.60
2022-10-19T16:12:31.972Z,15.50
2022-10-19T16:14:58.705Z,15.40
2022-10-19T16:17:25.433Z,15.40
2022-10-19T16:19:52.148Z,15.30
2022-10-19T16:22:18.807Z,15.30
2022-10-19T16:24:45.555Z,15.20
2022-10-19T16:27:15.255Z,15.20
2022-10-19T16:29:42.977Z,15.10
2022-10-19T16:32:09.716Z,15.10
2022-10-19T16:34:36.615Z,15.10
2022-10-19T16:37:05.910Z,15.00
2022-10-19T16:39:33.901Z,15.00
2022-10-19T16:42:00.624Z,15.00
2022-10-19T16:44:27.470Z,14.90
2022-10-19T16:46:56.605Z,14.90
2022-10-19T16:49:23.280Z,14.80
2022-10-19T16:51:52.040Z,14.80
2022-10-19T16:54:21.591Z,14.80
2022-10-19T16:56:48.393Z,14.80
2022-10-19T16:59:16.849Z,14.70
2022-10-19T17:01:44.490Z,14.70
2022-10-19T17:04:12.260Z,14.70
2022-10-19T17:06:39.081Z,14.70
2022-10-19T17:11:52.619Z,14.70
2022-10-19T17:14:19.370Z,14.60
2022-10-19T17:16:46.035Z,14.60
2022-10-19T17:19:12.864Z,14.60
2022-10-19T17:21:39.600Z,14.60
2022-10-19T17:24:07.700Z,14.60
2022-10-19T17:26:36.149Z,14.60
2022-10-19T17:29:03.039Z,14.60
2022-10-19T17:31:29.760Z,14.60
2022-10-19T17:33:56.861Z,14.50
2022-10-19T17:36:28.542Z,14.50
2022-10-19T17:38:56.400Z,14.50
2022-10-19T17:41:23.326Z,14.50
2022-10-19T17:43:53.032Z,14.50
2022-10-19T17:46:24.389Z,14.50
2022-10-19T17:48:51.153Z,14.50
2022-10-19T17:51:23.700Z,14.50
2022-10-19T17:53:50.770Z,14.50
2022-10-19T17:56:18.839Z,14.50
2022-10-19T17:58:45.691Z,14.50
2022-10-19T18:01:12.720Z,14.50
2022-10-19T18:03:39.504Z,14.50
2022-10-19T18:06:10.697Z,14.50
2022-10-19T18:08:39.742Z,14.50
2022-10-19T18:11:10.529Z,14.50
2022-10-19T18:16:11.591Z,14.40
2022-10-19T18:18:39.106Z,14.50
2022-10-19T18:21:07.118Z,14.50
2022-10-19T18:23:34.093Z,14.50
2022-10-19T18:26:27.651Z,14.50
2022-10-19T18:28:54.549Z,14.50
2022-10-19T18:31:22.883Z,14.60
2022-10-19T18:33:50.693Z,14.60
2022-10-19T18:36:17.380Z,14.60
2022-10-19T18:38:44.121Z,14.60
2022-10-19T18:43:43.395Z,14.60
2022-10-19T18:46:10.609Z,14.70
2022-10-19T18:48:37.861Z,14.70
2022-10-19T18:51:06.562Z,14.70
2022-10-19T18:53:37.796Z,14.70
2022-10-19T18:56:08.270Z,14.70
2022-10-19T18:58:35.605Z,14.70
2022-10-19T19:01:06.084Z,14.70
2022-10-19T19:03:32.832Z,14.70
2022-10-19T19:06:10.291Z,14.70
2022-10-19T19:08:37.043Z,14.70
2022-10-19T19:11:11.617Z,14.60
2022-10-19T19:13:38.650Z,14.60
2022-10-19T19:16:05.643Z,14.70
2022-10-19T19:18:34.380Z,14.70
2022-10-19T19:21:01.825Z,14.70
2022-10-19T19:23:28.624Z,14.70
2022-10-19T19:25:55.831Z,14.70
2022-10-19T19:28:22.837Z,14.70
2022-10-19T19:30:49.488Z,14.70
2022-10-19T19:33:16.129Z,14.70
2022-10-19T19:35:44.037Z,14.70
2022-10-19T19:38:11.427Z,14.70
2022-10-19T19:40:41.695Z,14.70
2022-10-19T19:43:11.819Z,14.70
2022-10-19T19:45:38.620Z,14.70
2022-10-19T19:48:05.944Z,14.70
2022-10-19T19:50:32.741Z,14.70
2022-10-19T19:52:59.729Z,14.70
2022-10-19T19:55:26.641Z,14.70
2022-10-19T19:57:54.410Z,14.70
2022-10-19T20:00:22.335Z,14.70
2022-10-19T20:02:55.600Z,14.70
2022-10-19T20:05:22.424Z,14.70
2022-10-19T20:07:49.250Z,14.80
2022-10-19T20:10:16.215Z,14.80
2022-10-19T20:12:43.750Z,14.80
2022-10-19T20:15:11.163Z,14.80
2022-10-19T20:17:38.435Z,14.80
2022-10-19T20:20:06.121Z,14.80
2022-10-19T20:22:32.841Z,14.70
2022-10-19T20:24:59.493Z,14.70
2022-10-19T20:27:26.174Z,14.70
2022-10-19T20:29:58.295Z,14.70
2022-10-19T20:32:25.995Z,14.70
2022-10-19T20:34:52.878Z,14.80
2022-10-19T20:37:20.241Z,14.70
2022-10-19T20:39:47.491Z,14.70
2022-10-19T20:42:14.651Z,14.70
2022-10-19T20:44:44.554Z,14.70
2022-10-19T20:47:11.411Z,14.70
2022-10-19T20:49:38.239Z,14.70
2022-10-19T20:52:04.909Z,14.60
2022-10-19T20:54:31.688Z,14.60
2022-10-19T20:56:58.483Z,14.50
2022-10-19T20:59:27.991Z,14.50
2022-10-19T21:01:56.075Z,14.60
2022-10-19T21:04:22.871Z,14.50
2022-10-19T21:06:50.163Z,14.50
2022-10-19T21:09:23.720Z,14.50
2022-10-19T21:11:50.978Z,14.40
2022-10-19T21:14:27.227Z,14.40
2022-10-19T21:16:56.843Z,14.40
2022-10-19T21:19:25.245Z,14.30
2022-10-19T21:21:55.403Z,14.30
2022-10-19T21:24:26.928Z,14.30
2022-10-19T21:26:53.917Z,14.30
2022-10-19T21:29:20.675Z,14.40
2022-10-19T21:31:49.231Z,14.30
2022-10-19T21:34:22.855Z,14.40
2022-10-19T21:36:49.939Z,14.40
2022-10-19T21:39:17.172Z,14.40
2022-10-19T21:41:43.862Z,14.40
2022-10-19T21:44:10.561Z,14.50
2022-10-19T21:46:37.398Z,14.50
2022-10-19T21:49:04.060Z,14.50
2022-10-19T21:51:42.495Z,14.50
2022-10-19T21:54:12.198Z,14.60
2022-10-19T21:56:39.174Z,14.60
2022-10-19T21:59:06.049Z,14.50
2022-10-19T22:01:38.753Z,14.60
2022-10-19T22:04:11.004Z,14.60
2022-10-19T22:06:37.720Z,14.60
2022-10-19T22:09:05.389Z,14.60
2022-10-19T22:11:32.297Z,14.60
2022-10-19T22:14:00.212Z,14.60
2022-10-19T22:16:27.274Z,14.60
2022-10-19T22:18:54.159Z,14.60
2022-10-19T22:21:28.525Z,14.60
2022-10-19T22:23:57.068Z,14.60
2022-10-19T22:26:25.723Z,14.70
2022-10-19T22:28:52.551Z,14.70
2022-10-19T22:31:19.300Z,14.70
2022-10-19T22:33:46.000Z,14.70
2022-10-19T22:36:13.421Z,14.70
2022-10-19T22:38:40.314Z,14.60
2022-10-19T22:41:07.205Z,14.60
2022-10-19T22:43:33.895Z,14.60
2022-10-19T22:46:00.637Z,14.60
2022-10-19T22:48:27.319Z,14.60
2022-10-19T22:50:54.335Z,14.60
2022-10-19T22:53:22.192Z,14.60
2022-10-19T22:55:48.860Z,14.60
2022-10-19T22:58:15.902Z,14.60
2022-10-19T23:00:42.552Z,14.60
2022-10-19T23:03:09.217Z,14.60
2022-10-19T23:05:35.864Z,14.60
2022-10-19T23:08:02.530Z,14.70
2022-10-19T23:10:29.266Z,14.70
2022-10-19T23:12:55.900Z,14.70
2022-10-19T23:15:22.555Z,14.70
2022-10-19T23:17:49.239Z,14.60
2022-10-19T23:20:16.035Z,14.60
2022-10-19T23:22:42.694Z,14.50
2022-10-19T23:25:09.501Z,14.50
2022-10-19T23:27:36.336Z,14.50
2022-10-19T23:30:03.968Z,14.50
2022-10-19T23:32:30.666Z,14.50
2022-10-19T23:34:57.380Z,14.50
2022-10-19T23:37:24.114Z,14.50
2022-10-19T23:39:50.777Z,14.50
2022-10-19T23:42:17.436Z,14.50
2022-10-19T23:44:44.345Z,14.50
2022-10-19T23:47:11.071Z,14.50
2022-10-19T23:49:37.707Z,14.50
2022-10-19T23:52:04.451Z,14.50
2022-10-19T23:54:31.147Z,14.50
2022-10-19T23:56:57.801Z,14.50
2022-10-19T23:59:24.485Z,14.40
